createdAt,value
2023-03-29T00:00:27.083Z,69.7387
2023-03-29T00:01:35.965Z,69.7916
2023-03-29T00:02:33.708Z,71.3092
2023-03-29T00:03:36.399Z,72.4102
2023-03-29T00:05:41.232Z,74.0137
2023-03-29T00:06:43.791Z,75.5588
2023-03-29T00:08:48.593Z,76.7623
2023-03-29T00:09:51.073Z,77.2427
2023-03-29T00:10:53.616Z,77.9405
2023-03-29T00:11:56.140Z,78.0257
2023-03-29T00:14:00.996Z,75.5448
2023-03-29T00:15:03.436Z,74.9579
2023-03-29T00:16:05.999Z,75.4042
2023-03-29T00:17:08.544Z,74.7581
2023-03-29T00:18:11.206Z,74.2407
2023-03-29T00:19:13.694Z,74.3445
2023-03-29T00:20:16.241Z,73.4823
2023-03-29T00:22:21.040Z,73.6645
2023-03-29T00:23:23.528Z,73.0387
2023-03-29T00:25:28.413Z,72.5343
2023-03-29T00:26:30.861Z,72.5594
2023-03-29T00:27:33.349Z,72.1598
2023-03-29T00:28:35.901Z,74.3021
2023-03-29T00:30:40.722Z,72.5786
2023-03-29T00:31:43.211Z,73.2252
2023-03-29T00:33:48.070Z,69.6753
2023-03-29T00:34:50.593Z,66.4949
2023-03-29T00:35:53.089Z,67.4602
2023-03-29T00:36:55.605Z,69.1774
2023-03-29T00:37:58.132Z,69.5492
2023-03-29T00:39:00.615Z,69.4757
2023-03-29T00:40:03.131Z,67.5576
2023-03-29T00:42:07.921Z,69.7162
2023-03-29T00:43:10.371Z,69.5034
2023-03-29T00:45:15.234Z,66.5898
2023-03-29T00:47:20.166Z,66.3128
2023-03-29T00:48:22.624Z,67.5548
2023-03-29T00:50:27.478Z,67.1086
2023-03-29T00:51:29.967Z,68.3083
2023-03-29T00:52:32.437Z,68.6477
2023-03-29T00:53:34.914Z,69.4446
2023-03-29T00:54:37.440Z,69.7615
2023-03-29T00:55:39.948Z,68.2849
2023-03-29T00:56:42.590Z,67.8138
2023-03-29T00:58:47.398Z,65.9351
2023-03-29T00:59:49.848Z,65.6075
2023-03-29T01:00:52.435Z,67.4978
2023-03-29T01:01:55.232Z,67.7489
2023-03-29T01:02:58.264Z,64.3135
2023-03-29T01:05:03.192Z,63.5556
2023-03-29T01:06:05.752Z,63.4794
2023-03-29T01:08:10.617Z,64.9970
2023-03-29T01:09:13.153Z,65.7450
2023-03-29T01:10:15.685Z,65.0366
2023-03-29T01:11:18.188Z,65.4562
2023-03-29T01:13:23.168Z,65.2787
2023-03-29T01:14:25.670Z,66.6043
2023-03-29T01:15:28.258Z,66.4421
2023-03-29T01:16:30.812Z,66.3800
2023-03-29T01:19:38.202Z,67.1066
2023-03-29T01:21:43.128Z,64.9632
2023-03-29T01:22:45.723Z,65.3814
2023-03-29T01:24:50.587Z,64.5179
2023-03-29T01:25:53.130Z,65.2868
2023-03-29T01:26:55.636Z,65.3098
2023-03-29T01:27:58.145Z,65.1026
2023-03-29T01:29:00.690Z,64.9837
2023-03-29T01:30:03.172Z,65.7594
2023-03-29T01:31:05.734Z,66.0946
2023-03-29T01:33:10.624Z,64.1422
2023-03-29T01:34:13.189Z,63.2763
2023-03-29T01:35:15.668Z,64.1219
2023-03-29T01:36:18.274Z,65.2390
2023-03-29T01:37:20.838Z,66.1040
2023-03-29T01:38:23.404Z,66.1568
2023-03-29T01:39:25.871Z,67.1045
2023-03-29T01:41:30.752Z,64.5523
2023-03-29T01:42:33.296Z,64.3151
2023-03-29T01:43:35.900Z,65.3514
2023-03-29T01:44:38.435Z,65.3777
2023-03-29T01:45:40.892Z,65.3304
2023-03-29T01:46:43.439Z,65.2433
2023-03-29T01:47:46.060Z,64.7872
2023-03-29T01:49:50.939Z,64.7517
2023-03-29T01:50:53.547Z,65.5601
2023-03-29T01:51:56.101Z,66.2569
2023-03-29T01:52:58.640Z,66.3868
2023-03-29T01:55:03.490Z,67.2939
2023-03-29T01:56:05.959Z,66.8147
2023-03-29T01:57:08.498Z,65.8038
2023-03-29T01:58:10.953Z,66.7024
2023-03-29T01:59:13.508Z,66.6690
2023-03-29T02:00:16.066Z,67.3135
2023-03-29T02:01:18.600Z,65.9900
2023-03-29T02:02:21.169Z,66.4987
2023-03-29T02:03:23.794Z,67.3753
2023-03-29T02:04:26.406Z,68.0602
2023-03-29T02:06:31.272Z,66.2243
2023-03-29T02:08:36.087Z,67.1920
2023-03-29T02:09:38.635Z,65.6985
2023-03-29T02:10:41.113Z,65.8697
2023-03-29T02:11:43.578Z,66.8960
2023-03-29T02:12:46.166Z,69.4340
2023-03-29T02:13:48.713Z,66.7483
2023-03-29T02:14:51.200Z,65.8644
2023-03-29T02:15:53.748Z,66.4861
2023-03-29T02:17:58.619Z,69.9210
2023-03-29T02:19:01.392Z,67.9971
2023-03-29T02:20:03.846Z,67.1201
2023-03-29T02:21:06.402Z,68.8620
2023-03-29T02:22:08.891Z,68.6878
2023-03-29T02:23:11.433Z,70.4708
2023-03-29T02:25:16.278Z,69.4207
2023-03-29T02:26:18.790Z,66.5012
2023-03-29T02:27:21.332Z,65.5508
2023-03-29T02:28:23.790Z,67.0520
2023-03-29T02:29:26.336Z,67.7634
2023-03-29T02:31:31.269Z,68.6340
2023-03-29T02:33:36.089Z,67.8415
2023-03-29T02:34:38.672Z,67.5210
2023-03-29T02:36:43.552Z,66.3523
2023-03-29T02:37:46.061Z,69.2162
2023-03-29T02:38:48.563Z,68.9027
2023-03-29T02:39:51.085Z,67.4932
2023-03-29T02:41:55.934Z,65.5152
2023-03-29T02:42:58.416Z,65.2775
2023-03-29T02:44:00.990Z,69.8848
2023-03-29T02:45:03.538Z,71.5033
2023-03-29T02:47:08.390Z,68.4249
2023-03-29T02:49:13.266Z,68.2038
2023-03-29T02:50:15.796Z,70.0702
2023-03-29T02:51:20.016Z,67.5163
2023-03-29T02:52:18.413Z,69.7434
2023-03-29T02:53:21.067Z,67.7506
2023-03-29T02:54:23.565Z,67.5593
2023-03-29T02:55:26.163Z,66.4977
2023-03-29T02:56:28.680Z,69.8884
2023-03-29T02:57:31.198Z,71.7602
2023-03-29T02:58:33.753Z,71.9814
2023-03-29T02:59:36.255Z,72.2183
2023-03-29T03:00:38.836Z,72.7957
2023-03-29T03:01:41.331Z,71.8652
2023-03-29T03:03:46.374Z,72.2186
2023-03-29T03:04:48.966Z,71.3559
2023-03-29T03:06:53.851Z,70.7432
2023-03-29T03:07:56.387Z,71.2068
2023-03-29T03:08:58.905Z,67.8782
2023-03-29T03:10:01.469Z,67.0671
2023-03-29T03:11:04.226Z,68.6321
2023-03-29T03:13:09.520Z,68.3030
2023-03-29T03:14:12.022Z,67.6445
2023-03-29T03:15:14.573Z,68.2831
2023-03-29T03:16:17.070Z,69.2570
2023-03-29T03:18:21.930Z,72.4075
2023-03-29T03:19:24.468Z,71.4335
2023-03-29T03:20:27.076Z,70.6035
2023-03-29T03:21:29.596Z,71.7835
2023-03-29T03:23:34.610Z,70.8412
2023-03-29T03:24:37.114Z,70.4874
2023-03-29T03:25:39.653Z,69.9204
2023-03-29T03:26:42.138Z,69.8068
2023-03-29T03:31:54.349Z,64.6557
2023-03-29T03:32:57.156Z,64.7781
2023-03-29T03:33:59.684Z,67.0360
2023-03-29T03:35:02.237Z,67.2426
2023-03-29T03:36:04.830Z,67.2363
2023-03-29T03:37:07.336Z,67.7904
2023-03-29T03:38:09.894Z,69.6312
2023-03-29T03:39:12.394Z,70.3453
2023-03-29T03:40:14.949Z,68.2305
2023-03-29T03:41:17.415Z,68.0717
2023-03-29T03:42:19.957Z,66.7870
2023-03-29T03:43:22.610Z,68.4415
2023-03-29T03:45:27.626Z,67.7677
2023-03-29T03:47:32.661Z,67.9552
2023-03-29T03:48:35.143Z,69.4247
2023-03-29T03:49:37.641Z,71.4900
2023-03-29T03:50:40.115Z,71.7895
2023-03-29T03:51:42.642Z,71.5323
2023-03-29T03:52:45.219Z,72.0517
2023-03-29T03:53:47.706Z,70.8770
2023-03-29T03:54:50.245Z,70.5567
2023-03-29T03:55:52.852Z,72.4002
2023-03-29T03:56:55.401Z,70.1140
2023-03-29T03:57:57.959Z,69.6013
2023-03-29T03:59:00.550Z,70.0312
2023-03-29T04:00:03.141Z,71.6831
2023-03-29T04:01:05.584Z,69.5674
2023-03-29T04:02:08.138Z,68.3707
2023-03-29T04:04:13.047Z,68.4570
2023-03-29T04:05:15.493Z,69.8920
2023-03-29T04:06:18.086Z,70.9834
2023-03-29T04:07:20.592Z,69.2590
2023-03-29T04:08:23.171Z,68.0460
2023-03-29T04:10:27.982Z,70.3806
2023-03-29T04:11:30.481Z,71.6675
2023-03-29T04:12:33.033Z,71.3073
2023-03-29T04:13:35.576Z,66.4512
2023-03-29T04:15:40.398Z,67.8658
2023-03-29T04:16:42.964Z,68.3613
2023-03-29T04:18:47.829Z,66.4335
2023-03-29T04:19:50.376Z,68.0171
2023-03-29T04:20:52.947Z,67.6348
2023-03-29T04:21:55.390Z,68.0529
2023-03-29T04:22:57.887Z,68.1647
2023-03-29T04:25:02.715Z,66.8841
2023-03-29T04:26:05.266Z,66.5628
2023-03-29T04:28:10.209Z,64.2868
2023-03-29T04:29:12.724Z,63.2721
2023-03-29T04:30:15.229Z,63.7343
2023-03-29T04:31:17.782Z,64.1639
2023-03-29T04:32:20.277Z,65.5387
2023-03-29T04:33:22.776Z,65.7656
2023-03-29T04:34:25.264Z,65.5705
2023-03-29T04:35:27.739Z,64.9068
2023-03-29T04:37:32.646Z,66.7624
2023-03-29T04:38:35.153Z,67.7508
2023-03-29T04:39:37.647Z,67.6344
2023-03-29T04:40:40.141Z,66.6547
2023-03-29T04:42:44.976Z,67.1309
2023-03-29T04:43:47.509Z,65.8715
2023-03-29T04:44:50.080Z,65.5618
2023-03-29T04:45:52.656Z,65.9693
2023-03-29T04:46:55.358Z,64.3307
2023-03-29T04:47:57.912Z,66.1775
2023-03-29T04:49:00.479Z,67.0716
2023-03-29T04:50:02.964Z,67.6765
2023-03-29T04:51:05.482Z,66.9118
2023-03-29T04:52:08.014Z,64.5473
2023-03-29T04:53:10.528Z,61.4343
2023-03-29T04:54:13.088Z,60.5559
2023-03-29T04:55:15.649Z,59.2949
2023-03-29T04:56:18.091Z,58.9088
2023-03-29T04:57:20.685Z,57.5131
2023-03-29T04:59:25.508Z,58.6958
2023-03-29T05:00:28.064Z,57.9167
2023-03-29T05:01:30.587Z,57.3490
2023-03-29T05:02:33.146Z,58.2055
2023-03-29T05:03:35.766Z,59.1985
2023-03-29T05:05:40.584Z,58.7448
2023-03-29T05:06:43.170Z,58.4976
2023-03-29T05:07:45.717Z,58.7530
2023-03-29T05:08:48.172Z,59.0086
2023-03-29T05:09:50.684Z,58.9979
2023-03-29T05:10:53.173Z,58.1671
2023-03-29T05:11:55.727Z,57.5308
2023-03-29T05:14:00.509Z,57.4430
2023-03-29T05:18:10.266Z,59.0375
2023-03-29T05:19:12.810Z,57.4810
2023-03-29T05:20:15.458Z,57.8520
2023-03-29T05:22:20.300Z,59.1779
2023-03-29T05:24:25.073Z,59.6340
2023-03-29T05:25:27.865Z,59.3854
2023-03-29T05:26:30.363Z,60.2191
2023-03-29T05:27:33.021Z,60.6764
2023-03-29T05:28:35.576Z,60.9552
2023-03-29T05:29:38.112Z,60.2819
2023-03-29T05:30:40.599Z,60.1341
2023-03-29T05:31:43.173Z,59.5038
2023-03-29T05:32:45.739Z,58.9046
2023-03-29T05:33:48.188Z,59.7628
2023-03-29T05:35:53.114Z,58.3659
2023-03-29T05:36:55.571Z,58.4249
2023-03-29T05:37:58.092Z,61.8010
2023-03-29T05:40:05.825Z,62.8902
2023-03-29T05:41:04.589Z,60.1640
2023-03-29T05:43:09.596Z,60.0640
2023-03-29T05:44:12.139Z,58.9761
2023-03-29T05:45:14.677Z,59.2280
2023-03-29T05:46:17.234Z,59.1603
2023-03-29T05:47:19.944Z,61.1575
2023-03-29T05:49:24.812Z,60.9696
2023-03-29T05:50:27.330Z,60.9039
2023-03-29T05:52:32.204Z,60.0089
2023-03-29T05:53:34.684Z,60.7291
2023-03-29T05:55:39.466Z,62.0663
2023-03-29T05:56:41.995Z,62.3522
2023-03-29T05:58:46.845Z,61.6187
2023-03-29T05:59:49.283Z,62.1760
2023-03-29T06:00:51.803Z,61.4335
2023-03-29T06:01:54.383Z,62.2625
2023-03-29T06:03:03.654Z,61.7621
2023-03-29T06:05:03.156Z,62.5745
2023-03-29T06:06:05.743Z,62.2247
2023-03-29T06:07:08.192Z,62.2254
2023-03-29T06:08:10.742Z,63.3115
2023-03-29T06:09:13.263Z,63.3383
2023-03-29T06:10:15.757Z,64.2941
2023-03-29T06:11:18.302Z,62.0010
2023-03-29T06:20:39.535Z,59.9898
2023-03-29T06:22:44.328Z,59.2440
2023-03-29T06:23:46.765Z,58.4698
2023-03-29T06:24:49.410Z,58.9973
2023-03-29T06:25:51.871Z,59.2887
2023-03-29T06:27:56.795Z,59.3693
2023-03-29T06:28:59.247Z,59.0739
2023-03-29T06:30:01.744Z,59.4465
2023-03-29T06:31:04.468Z,59.9711
2023-03-29T06:32:07.596Z,59.8668
2023-03-29T06:34:12.371Z,61.3610
2023-03-29T06:35:14.855Z,59.3592
2023-03-29T06:37:19.712Z,59.7418
2023-03-29T06:38:22.148Z,59.1000
2023-03-29T06:39:24.621Z,58.1590
2023-03-29T06:40:27.078Z,59.6031
2023-03-29T06:41:29.542Z,59.2405
2023-03-29T06:42:31.961Z,58.4545
2023-03-29T06:44:36.661Z,58.3567
2023-03-29T06:46:41.516Z,56.6406
2023-03-29T06:47:43.986Z,57.6332
2023-03-29T06:48:46.427Z,57.2542
2023-03-29T06:49:48.869Z,57.4587
2023-03-29T06:50:51.369Z,57.6006
2023-03-29T06:52:56.153Z,56.9473
2023-03-29T06:53:58.586Z,58.9701
2023-03-29T06:55:01.110Z,58.9743
2023-03-29T06:56:03.559Z,57.3799
2023-03-29T06:57:06.058Z,58.4146
2023-03-29T06:58:08.514Z,58.4628
2023-03-29T06:59:10.969Z,58.0747
2023-03-29T07:00:13.444Z,57.0528
2023-03-29T07:01:16.011Z,56.7285
2023-03-29T07:02:18.486Z,56.0734
2023-03-29T07:04:23.270Z,56.4392
2023-03-29T07:05:25.726Z,56.5096
2023-03-29T07:06:28.164Z,56.8758
2023-03-29T07:07:30.617Z,56.9911
2023-03-29T07:08:33.050Z,58.4946
2023-03-29T07:09:35.559Z,59.2623
2023-03-29T07:10:38.031Z,61.7826
2023-03-29T07:12:42.770Z,67.2061
2023-03-29T07:13:45.193Z,66.0237
2023-03-29T07:14:47.647Z,65.6227
2023-03-29T07:15:50.105Z,68.0846
2023-03-29T07:17:54.895Z,68.4415
2023-03-29T07:18:57.338Z,69.4216
2023-03-29T07:19:58.420Z,69.1328
2023-03-29T07:22:03.161Z,68.8045
2023-03-29T07:23:05.571Z,69.7042
2023-03-29T07:24:08.063Z,70.4852
2023-03-29T07:25:10.540Z,68.5561
2023-03-29T07:26:13.026Z,68.4223
2023-03-29T07:27:15.413Z,70.0706
2023-03-29T07:28:17.879Z,68.5107
2023-03-29T07:29:20.359Z,68.7170
2023-03-29T07:30:22.821Z,67.1606
2023-03-29T07:31:25.278Z,68.4132
2023-03-29T07:32:27.825Z,68.1894
2023-03-29T07:34:32.656Z,68.1241
2023-03-29T07:35:35.193Z,69.0115
2023-03-29T07:37:39.922Z,68.8328
2023-03-29T07:38:42.330Z,69.1948
2023-03-29T07:39:44.773Z,68.9095
2023-03-29T07:40:47.233Z,68.8594
2023-03-29T07:42:52.635Z,68.3214
2023-03-29T07:43:55.039Z,64.6889
2023-03-29T07:44:57.477Z,65.0912
2023-03-29T07:45:59.950Z,68.5801
2023-03-29T07:47:02.352Z,67.6830
2023-03-29T07:48:04.932Z,68.5464
2023-03-29T07:49:07.352Z,65.9776
2023-03-29T07:50:09.795Z,62.3301
2023-03-29T07:51:12.206Z,66.7451
2023-03-29T07:52:14.627Z,67.7562
2023-03-29T07:53:17.055Z,66.8681
2023-03-29T07:54:19.538Z,67.7531
2023-03-29T07:55:22.035Z,67.2388
2023-03-29T07:56:24.458Z,64.6914
2023-03-29T07:57:27.219Z,64.0999
2023-03-29T07:59:32.063Z,62.9507
2023-03-29T08:00:34.555Z,62.0115
2023-03-29T08:02:39.170Z,62.9514
2023-03-29T08:03:41.654Z,64.3666
2023-03-29T08:05:46.369Z,64.6573
2023-03-29T08:06:48.774Z,64.0675
2023-03-29T08:07:51.236Z,65.9007
2023-03-29T08:08:53.633Z,65.4312
2023-03-29T08:09:56.031Z,63.5942
2023-03-29T08:10:58.476Z,64.8016
2023-03-29T08:12:00.914Z,63.3708
2023-03-29T08:13:03.330Z,61.0245
2023-03-29T08:14:05.774Z,63.4095
2023-03-29T08:16:10.442Z,66.4242
2023-03-29T08:17:12.941Z,65.0599
2023-03-29T08:19:17.711Z,66.7344
2023-03-29T08:20:20.173Z,67.0457
2023-03-29T08:22:24.843Z,66.2070
2023-03-29T08:24:29.545Z,66.9350
2023-03-29T08:25:32.044Z,67.0828
2023-03-29T08:26:34.431Z,66.0566
2023-03-29T08:27:36.902Z,67.2704
2023-03-29T08:29:41.824Z,65.7265
2023-03-29T08:31:46.526Z,67.2960
2023-03-29T08:32:51.078Z,64.8880
2023-03-29T08:33:51.082Z,63.7247
2023-03-29T08:35:55.825Z,65.2782
2023-03-29T08:38:00.507Z,65.2009
2023-03-29T08:39:02.979Z,64.0489
2023-03-29T08:40:05.372Z,62.9908
2023-03-29T08:41:07.839Z,63.1097
2023-03-29T08:42:10.218Z,62.8791
2023-03-29T08:43:12.676Z,63.8731
2023-03-29T08:44:15.056Z,62.8314
2023-03-29T08:46:19.802Z,62.2053
2023-03-29T08:47:22.247Z,61.3177
2023-03-29T08:49:26.931Z,62.2723
2023-03-29T08:51:31.524Z,60.0287
2023-03-29T08:52:33.993Z,62.2284
2023-03-29T08:53:36.391Z,64.0493
2023-03-29T08:54:38.900Z,61.0000
2023-03-29T08:55:41.386Z,59.3749
2023-03-29T08:57:46.019Z,59.6519
2023-03-29T08:58:48.384Z,59.7172
2023-03-29T08:59:50.810Z,61.6961
2023-03-29T09:00:53.233Z,58.8171
2023-03-29T09:02:58.313Z,59.1653
2023-03-29T09:04:00.902Z,59.4070
2023-03-29T09:06:05.568Z,57.7574
2023-03-29T09:08:10.351Z,58.1112
2023-03-29T09:09:12.776Z,58.4387
2023-03-29T09:11:17.529Z,57.3006
2023-03-29T09:12:19.989Z,57.6230
2023-03-29T09:13:22.387Z,58.2224
2023-03-29T09:14:24.835Z,58.3144
2023-03-29T09:15:27.260Z,58.2322
2023-03-29T09:16:29.763Z,57.7989
2023-03-29T09:17:32.218Z,59.3974
2023-03-29T09:18:34.688Z,59.0794
2023-03-29T09:19:37.072Z,59.0591
2023-03-29T09:20:39.537Z,60.2062
2023-03-29T09:21:41.986Z,62.4409
2023-03-29T09:22:44.376Z,62.1653
2023-03-29T09:24:49.110Z,60.1110
2023-03-29T09:25:54.202Z,60.1080
2023-03-29T09:26:52.221Z,61.1323
2023-03-29T09:27:54.675Z,59.6562
2023-03-29T09:28:57.173Z,60.9027
2023-03-29T09:29:59.560Z,59.6832
2023-03-29T09:31:02.270Z,59.2400
2023-03-29T09:32:04.868Z,58.8466
2023-03-29T09:33:07.363Z,59.8486
2023-03-29T09:34:09.781Z,59.7949
2023-03-29T09:36:14.604Z,59.7766
2023-03-29T09:37:17.004Z,60.6936
2023-03-29T09:38:19.516Z,61.2425
2023-03-29T09:39:21.942Z,60.6606
2023-03-29T09:41:26.646Z,62.7628
2023-03-29T09:42:29.073Z,61.6548
2023-03-29T09:43:31.536Z,61.7036
2023-03-29T09:44:33.936Z,59.4422
2023-03-29T09:46:38.651Z,61.1017
2023-03-29T09:47:41.141Z,62.5198
2023-03-29T09:48:43.597Z,59.1832
2023-03-29T09:49:46.102Z,60.4505
2023-03-29T09:50:48.530Z,59.4242
2023-03-29T09:52:53.268Z,58.6034
2023-03-29T09:53:55.752Z,60.2649
2023-03-29T09:56:00.533Z,59.3640
2023-03-29T09:57:03.058Z,59.0339
2023-03-29T09:58:05.468Z,60.1695
2023-03-29T09:59:07.918Z,61.2504
2023-03-29T10:00:10.352Z,61.5860
2023-03-29T10:01:12.856Z,61.7080
2023-03-29T10:03:17.504Z,58.8193
2023-03-29T10:04:19.981Z,60.5053
2023-03-29T10:06:24.638Z,60.6429
2023-03-29T10:07:27.082Z,60.2404
2023-03-29T10:08:29.483Z,59.6842
2023-03-29T10:09:32.074Z,59.2689
2023-03-29T10:10:34.481Z,59.2070
2023-03-29T10:11:37.022Z,59.1819
2023-03-29T10:12:39.454Z,58.6605
2023-03-29T10:13:41.834Z,57.9432
2023-03-29T10:15:46.494Z,57.9702
2023-03-29T10:16:49.013Z,57.2879
2023-03-29T10:18:53.638Z,58.9493
2023-03-29T10:19:56.061Z,59.1602
2023-03-29T10:20:58.461Z,57.9992
2023-03-29T10:22:00.867Z,58.7028
2023-03-29T10:23:03.307Z,58.4583
2023-03-29T10:24:05.681Z,56.5221
2023-03-29T10:25:08.087Z,57.1916
2023-03-29T10:27:12.740Z,57.4846
2023-03-29T10:28:15.119Z,58.5685
2023-03-29T10:29:17.554Z,58.7942
2023-03-29T10:30:19.945Z,56.9230
2023-03-29T10:31:22.378Z,56.7181
2023-03-29T10:32:24.857Z,56.1079
2023-03-29T10:33:27.197Z,57.3497
2023-03-29T10:34:29.670Z,57.3037
2023-03-29T10:35:32.112Z,55.6454
2023-03-29T10:36:34.510Z,56.7258
2023-03-29T10:37:36.864Z,56.1270
2023-03-29T10:39:41.486Z,52.3881
2023-03-29T10:40:43.801Z,53.0902
2023-03-29T10:41:46.187Z,53.8241
2023-03-29T10:42:48.527Z,52.6074
2023-03-29T10:43:51.149Z,50.8329
2023-03-29T10:44:54.337Z,53.2768
2023-03-29T16:02:32.911Z,48.2476
2023-03-29T16:03:33.139Z,48.0796
2023-03-29T16:04:33.414Z,47.4319
2023-03-29T16:05:33.618Z,47.5124
2023-03-29T16:06:33.795Z,48.3056
2023-03-29T16:07:34.047Z,50.6763
2023-03-29T16:08:34.275Z,51.3935
2023-03-29T16:09:34.445Z,50.2367
2023-03-29T16:10:34.653Z,50.9116
2023-03-29T16:11:34.854Z,50.5731
2023-03-29T16:12:35.045Z,51.2170
2023-03-29T16:13:35.271Z,55.0267
2023-03-29T16:14:35.404Z,58.2976
2023-03-29T16:15:35.650Z,57.5651
2023-03-29T16:16:36.987Z,57.3648
2023-03-29T16:17:37.248Z,60.0452
2023-03-29T16:18:37.463Z,61.5470
2023-03-29T16:19:37.749Z,59.8054
2023-03-29T16:21:37.987Z,60.2102
2023-03-29T16:22:38.239Z,60.0447
2023-03-29T16:23:38.442Z,60.1690
2023-03-29T16:24:38.638Z,60.5414
2023-03-29T16:25:38.852Z,59.8781
2023-03-29T16:26:39.124Z,62.6999
2023-03-29T16:27:39.288Z,60.2097
2023-03-29T16:28:39.498Z,61.3801
2023-03-29T16:29:39.700Z,62.9212
2023-03-29T16:30:39.906Z,62.5827
2023-03-29T16:31:40.331Z,61.4124
2023-03-29T16:32:40.750Z,62.5387
2023-03-29T16:33:41.003Z,62.4781
2023-03-29T16:34:41.514Z,60.5811
2023-03-29T16:35:42.016Z,60.0091
2023-03-29T16:36:42.170Z,62.3522
2023-03-29T16:37:42.391Z,61.8999
2023-03-29T16:38:42.585Z,63.1554
2023-03-29T16:39:42.825Z,64.2715
2023-03-29T16:40:43.005Z,64.6058
2023-03-29T16:41:43.198Z,63.1847
2023-03-29T16:42:43.419Z,63.9495
2023-03-29T16:43:43.615Z,64.2017
2023-03-29T16:44:43.847Z,64.7492
2023-03-29T16:45:44.026Z,65.8535
2023-03-29T16:46:44.234Z,66.5633
2023-03-29T16:47:44.567Z,67.6342
2023-03-29T16:48:44.857Z,66.1001
2023-03-29T16:49:45.953Z,68.2808
2023-03-29T16:50:46.228Z,67.5247
2023-03-29T16:51:46.451Z,65.4654
2023-03-29T16:52:46.702Z,67.0582
2023-03-29T16:53:46.915Z,67.0837
2023-03-29T16:54:47.133Z,68.0833
2023-03-29T16:55:47.352Z,67.8417
2023-03-29T16:56:47.593Z,67.7524
2023-03-29T16:57:47.757Z,69.1756
2023-03-29T16:58:48.022Z,67.8702
2023-03-29T16:59:48.288Z,67.0438
2023-03-29T17:00:48.697Z,69.7378
2023-03-29T17:01:48.926Z,68.9970
2023-03-29T17:02:49.229Z,65.6941
2023-03-29T17:03:49.532Z,66.8361
2023-03-29T17:04:49.931Z,69.2010
2023-03-29T17:05:50.258Z,68.4439
2023-03-29T17:06:50.694Z,67.8109
2023-03-29T17:07:50.899Z,66.6991
2023-03-29T17:08:51.136Z,67.2056
2023-03-29T17:09:51.371Z,69.7083
2023-03-29T17:10:51.596Z,67.1290
2023-03-29T17:11:52.819Z,69.2534
2023-03-29T17:12:53.164Z,68.0412
2023-03-29T17:13:53.499Z,70.2798
2023-03-29T17:14:53.825Z,70.4815
2023-03-29T17:15:54.109Z,68.7705
2023-03-29T17:16:54.339Z,67.7877
2023-03-29T17:17:54.591Z,67.9800
2023-03-29T17:18:54.837Z,70.0069
2023-03-29T17:19:55.192Z,68.4702
2023-03-29T17:20:55.460Z,66.4090
2023-03-29T17:21:55.667Z,67.9728
2023-03-29T17:22:55.973Z,67.1545
2023-03-29T17:23:56.240Z,67.9481
2023-03-29T17:24:56.573Z,67.8864
2023-03-29T17:25:56.778Z,68.1577
2023-03-29T17:26:57.048Z,69.7486
2023-03-29T17:27:57.293Z,69.0509
2023-03-29T17:28:57.503Z,67.5395
2023-03-29T17:30:57.889Z,68.3993
2023-03-29T17:31:58.082Z,69.6668
2023-03-29T17:32:58.299Z,69.5877
2023-03-29T17:33:58.565Z,68.4538
2023-03-29T17:34:58.792Z,69.8120
2023-03-29T17:35:59.288Z,71.0596
2023-03-29T17:36:59.743Z,70.9842
2023-03-29T17:37:59.957Z,71.6227
2023-03-29T17:39:02.364Z,69.3092
2023-03-29T17:40:00.616Z,69.1870
2023-03-29T17:41:00.930Z,71.9178
2023-03-29T17:42:01.168Z,71.1338
2023-03-29T17:43:01.592Z,70.1991
2023-03-29T17:44:01.964Z,72.4488
2023-03-29T17:45:02.205Z,73.0567
2023-03-29T17:46:02.611Z,73.2495
2023-03-29T17:47:03.361Z,73.2834
2023-03-29T17:48:06.246Z,73.3242
2023-03-29T17:49:04.656Z,72.6619
2023-03-29T17:50:05.272Z,73.7757
2023-03-29T17:51:05.625Z,72.2963
2023-03-29T17:52:05.834Z,71.9066
2023-03-29T17:53:06.179Z,70.9118
2023-03-29T17:54:06.480Z,71.2491
2023-03-29T17:55:06.664Z,69.6457
2023-03-29T17:56:06.942Z,69.3518
2023-03-29T17:57:07.171Z,70.4326
2023-03-29T17:58:07.406Z,70.6452
2023-03-29T17:59:07.642Z,72.2882
2023-03-29T18:00:07.938Z,73.4641
2023-03-29T18:01:08.519Z,72.4710
2023-03-29T18:02:08.841Z,70.7065
2023-03-29T18:03:09.071Z,71.0824
2023-03-29T18:04:09.476Z,71.8658
2023-03-29T18:05:09.700Z,71.2496
2023-03-29T18:06:09.916Z,71.0041
2023-03-29T18:07:10.093Z,71.0985
2023-03-29T18:08:10.328Z,70.6977
2023-03-29T18:09:10.520Z,70.4852
2023-03-29T18:10:10.951Z,70.3518
2023-03-29T18:11:11.231Z,70.0761
2023-03-29T18:12:11.481Z,70.7657
2023-03-29T18:13:11.832Z,71.1811
2023-03-29T18:14:12.053Z,71.2047
2023-03-29T18:15:12.251Z,72.5554
2023-03-29T18:16:12.487Z,70.8912
2023-03-29T18:17:12.734Z,69.5893
2023-03-29T18:18:12.910Z,70.9434
2023-03-29T18:19:13.182Z,71.1659
2023-03-29T18:20:13.428Z,71.0897
2023-03-29T18:21:13.715Z,70.3471
2023-03-29T18:22:14.555Z,69.8358
2023-03-29T18:23:15.074Z,69.6793
2023-03-29T18:24:15.478Z,69.8877
2023-03-29T18:25:15.795Z,69.9722
2023-03-29T18:26:16.272Z,70.6803
2023-03-29T18:27:16.536Z,72.7557
2023-03-29T18:28:16.729Z,72.9930
2023-03-29T18:29:17.014Z,73.6827
2023-03-29T18:30:17.292Z,73.4185
2023-03-29T18:31:17.739Z,72.8293
2023-03-29T18:32:18.047Z,70.7057
2023-03-29T18:33:18.328Z,69.6840
2023-03-29T18:34:18.541Z,70.2396
2023-03-29T18:35:18.818Z,70.7887
2023-03-29T18:36:19.074Z,69.7504
2023-03-29T18:37:19.643Z,71.2008
2023-03-29T18:38:19.933Z,72.6055
2023-03-29T18:39:20.171Z,72.6902
2023-03-29T18:40:20.373Z,70.9477
2023-03-29T18:41:20.666Z,71.7842
2023-03-29T18:43:21.011Z,70.2729
2023-03-29T18:44:21.224Z,71.1725
2023-03-29T18:45:21.650Z,70.9034
2023-03-29T18:46:22.110Z,71.4119
2023-03-29T18:47:22.462Z,74.4401
2023-03-29T18:48:22.859Z,78.0514
2023-03-29T18:49:23.072Z,76.7910
2023-03-29T18:50:23.297Z,75.5463
2023-03-29T18:51:23.493Z,78.4308
2023-03-29T18:53:23.794Z,78.7702
2023-03-29T18:54:24.114Z,76.4660
2023-03-29T18:55:24.364Z,78.5366
2023-03-29T18:56:24.595Z,81.5292
2023-03-29T18:57:24.962Z,82.0467
2023-03-29T18:58:25.193Z,76.3120
2023-03-29T18:59:25.458Z,74.9053
2023-03-29T19:00:25.723Z,75.8664
2023-03-29T19:01:25.972Z,76.9729
2023-03-29T19:02:26.263Z,75.5578
2023-03-29T19:03:26.607Z,75.8788
2023-03-29T19:04:27.025Z,76.0070
2023-03-29T19:05:27.340Z,76.4128
2023-03-29T19:06:27.561Z,75.4440
2023-03-29T19:07:27.874Z,75.4338
2023-03-29T19:08:28.229Z,74.4936
2023-03-29T19:09:28.507Z,75.4272
2023-03-29T19:10:28.813Z,74.7206
2023-03-29T19:11:29.176Z,76.3113
2023-03-29T19:12:29.487Z,76.7354
2023-03-29T19:13:29.764Z,80.3425
2023-03-29T19:14:30.078Z,81.7136
2023-03-29T19:15:30.437Z,80.1746
2023-03-29T19:16:30.755Z,81.9403
2023-03-29T19:17:31.074Z,84.7601
2023-03-29T19:18:31.390Z,87.0064
2023-03-29T19:19:31.663Z,87.3647
2023-03-29T19:20:31.922Z,87.2428
2023-03-29T19:21:32.307Z,87.1260
2023-03-29T19:23:32.748Z,85.0470
2023-03-29T19:24:32.977Z,85.9768
2023-03-29T19:25:33.265Z,85.8288
2023-03-29T19:26:33.614Z,85.1944
2023-03-29T19:27:33.885Z,83.8021
2023-03-29T19:28:34.148Z,84.5499
2023-03-29T19:29:34.410Z,83.5646
2023-03-29T19:30:34.697Z,83.0991
2023-03-29T19:31:35.078Z,79.7060
2023-03-29T19:32:35.340Z,79.6556
2023-03-29T19:33:35.612Z,78.3396
2023-03-29T19:34:35.915Z,72.9945
2023-03-29T19:35:36.343Z,70.9314
2023-03-29T19:36:36.589Z,75.7483
2023-03-29T19:37:36.921Z,72.7758
2023-03-29T19:38:37.162Z,72.6585
2023-03-29T19:39:37.459Z,75.7880
2023-03-29T19:40:37.774Z,73.8191
2023-03-29T19:41:39.441Z,73.1068
2023-03-29T19:42:38.526Z,73.6682
2023-03-29T19:43:38.866Z,75.6416
2023-03-29T19:44:39.158Z,75.4115
2023-03-29T19:45:39.432Z,75.8115
2023-03-29T19:46:39.737Z,76.4589
2023-03-29T19:47:40.114Z,74.3016
2023-03-29T19:48:40.454Z,76.2929
2023-03-29T19:49:40.799Z,74.5614
2023-03-29T19:50:41.195Z,74.7437
2023-03-29T19:51:41.520Z,75.6615
2023-03-29T19:52:41.754Z,75.9501
2023-03-29T19:53:42.056Z,75.3799
2023-03-29T19:54:42.357Z,74.9370